PLCH

Cassidy International Airport

Banana, Kiribati
TAF PLCH 221109Z 2212/2312 10006KT 9999 SCT019
Issued Valid From Valid To
Jan-22 @ 11:09 UTC
(6 hours ago)
Jan-22 @ 12:00 UTC
(5 hours ago)
Jan-23 @ 12:00 UTC
(in 19 hours)
Jan-22 @ 12:00 to Jan-23 @ 12:00
TAF PLCH 221109Z 2212/2312 10006KT 9999 SCT019
Wind Visibility Clouds
100° at 6 knots 10,000+ meters
  • Scattered at 1,900' AGL
TAF PLCH 221109Z 2212/2312 10006KT 9999 SCT019
Issued Jan-22 @ 11:09 UTC
(6 hours ago)
Valid From Jan-22 @ 12:00 UTC
(5 hours ago)
Valid To Jan-23 @ 12:00 UTC
(in 19 hours)
Jan-22 @ 12:00 - Jan-23 @ 12:00
Wind Visibility
100° at 6 knots 10,000+ meters
Clouds
  • Scattered at 1,900' AGL